Time;durP1;ratioP1;P1;durP2;ratioP2;P2;SDS_P1;SDS_P2;PMS_P1;PMS_P2;Temp;Humidity;BMP_temperature;BMP_pressure;BME280_temperature;BME280_humidity;BME280_pressure;Samples;Min_cycle;Max_cycle;Signal;HPM_P1;HPM_P2
2021/03/09 00:01:58;;;;;;;7.37;6.27;;;-1.50;99.90;;;;;;5020418;28;20442;-72
2021/03/09 00:04:23;;;;;;;13.60;7.37;;;-1.50;99.90;;;;;;5019666;28;20280;-72
2021/03/09 00:06:49;;;;;;;11.27;6.63;;;-1.50;99.90;;;;;;5023243;28;20567;-73
2021/03/09 00:09:14;;;;;;;9.67;5.87;;;-1.50;99.90;;;;;;5015165;28;20193;-71
2021/03/09 00:11:40;;;;;;;11.90;6.00;;;-1.50;99.90;;;;;;5022557;28;20667;-72
2021/03/09 00:14:05;;;;;;;12.13;5.97;;;-1.50;99.90;;;;;;5020123;28;20181;-72
2021/03/09 00:16:31;;;;;;;13.17;6.63;;;-1.50;99.90;;;;;;5019957;28;20201;-72
2021/03/09 00:18:56;;;;;;;10.37;6.67;;;-1.60;99.90;;;;;;5021210;28;20646;-73
2021/03/09 00:21:22;;;;;;;9.90;6.20;;;-1.60;99.90;;;;;;5019815;28;20225;-72
2021/03/09 00:23:47;;;;;;;16.03;6.77;;;-1.60;99.90;;;;;;5022642;28;20185;-72
2021/03/09 00:26:13;;;;;;;9.50;6.67;;;-1.70;99.90;;;;;;5019188;28;20217;-73
2021/03/09 00:28:39;;;;;;;14.77;6.23;;;-1.70;99.90;;;;;;5021832;28;20683;-73
2021/03/09 00:31:04;;;;;;;10.70;6.60;;;-1.70;99.90;;;;;;5019275;28;20199;-72
2021/03/09 00:33:30;;;;;;;9.20;6.03;;;-1.70;99.90;;;;;;5020648;28;20182;-72
2021/03/09 00:35:56;;;;;;;8.90;6.20;;;-1.70;99.90;;;;;;5021563;28;20194;-73
2021/03/09 00:38:21;;;;;;;9.70;5.97;;;-1.70;99.90;;;;;;5018539;28;20193;-72
2021/03/09 00:40:47;;;;;;;10.23;6.30;;;-1.70;99.90;;;;;;5022547;28;21034;-73
2021/03/09 00:43:13;;;;;;;13.47;6.87;;;-1.80;99.90;;;;;;5018815;28;20185;-72
2021/03/09 00:45:39;;;;;;;10.37;6.43;;;-1.80;99.90;;;;;;5021428;28;20213;-72
2021/03/09 00:48:04;;;;;;;12.90;6.83;;;-1.80;99.90;;;;;;5022534;28;20460;-73
2021/03/09 00:50:30;;;;;;;12.10;5.83;;;-1.80;99.90;;;;;;5020834;28;20200;-72
2021/03/09 00:52:56;;;;;;;9.50;6.93;;;-1.80;99.90;;;;;;5021113;28;20584;-72
2021/03/09 00:55:21;;;;;;;9.03;6.87;;;-1.80;99.90;;;;;;5021431;28;20628;-73
2021/03/09 00:58:00;;;;;;;13.30;6.60;;;-1.80;99.90;;;;;;5021024;28;20239;-72
2021/03/09 01:00:27;;;;;;;7.93;5.73;;;-1.80;99.90;;;;;;5014172;28;20191;-72
2021/03/09 01:02:53;;;;;;;8.87;6.43;;;-1.90;99.90;;;;;;5014534;28;20920;-72
2021/03/09 01:05:20;;;;;;;10.77;5.77;;;-1.90;99.90;;;;;;5024483;28;20828;-72
2021/03/09 01:07:45;;;;;;;10.83;6.90;;;-1.90;99.90;;;;;;5015860;28;20472;-72
2021/03/09 01:10:12;;;;;;;13.63;6.40;;;-1.90;99.90;;;;;;5018367;28;20480;-72
2021/03/09 01:12:38;;;;;;;9.27;6.20;;;-1.90;99.90;;;;;;5019234;28;20632;-72
2021/03/09 01:15:05;;;;;;;10.53;6.37;;;-2.00;99.90;;;;;;5012067;28;20548;-73
2021/03/09 01:17:31;;;;;;;9.40;6.10;;;-2.00;99.90;;;;;;5016631;28;20194;-72
2021/03/09 01:19:56;;;;;;;9.40;6.20;;;-2.00;99.90;;;;;;5013054;28;20526;-72
2021/03/09 01:22:22;;;;;;;8.90;5.90;;;-2.00;99.90;;;;;;5021650;28;20218;-72
2021/03/09 01:24:47;;;;;;;12.37;6.87;;;-2.00;99.90;;;;;;5015876;28;20697;-73
2021/03/09 01:27:13;;;;;;;9.63;5.63;;;-2.00;99.90;;;;;;5021858;28;20189;-73
2021/03/09 01:29:39;;;;;;;9.47;6.27;;;-2.10;99.90;;;;;;5017761;28;20665;-73
2021/03/09 01:32:05;;;;;;;20.30;7.73;;;-2.10;99.90;;;;;;5017710;28;20191;-73
2021/03/09 01:34:31;;;;;;;12.80;7.13;;;-2.10;99.90;;;;;;5020109;28;20791;-72
2021/03/09 01:36:56;;;;;;;12.10;7.27;;;-2.10;99.90;;;;;;5017046;28;20216;-72
2021/03/09 01:39:22;;;;;;;10.50;6.23;;;-2.10;99.90;;;;;;5018814;28;20494;-73
2021/03/09 01:41:47;;;;;;;13.70;7.50;;;-2.10;99.90;;;;;;5015474;28;20226;-72
2021/03/09 01:44:13;;;;;;;15.40;7.20;;;-2.10;99.90;;;;;;5014874;28;20616;-72
2021/03/09 01:46:41;;;;;;;10.30;6.63;;;-2.10;99.90;;;;;;5015508;28;20209;-72
2021/03/09 01:49:07;;;;;;;10.43;6.60;;;-2.20;99.90;;;;;;5019519;28;20181;-72
2021/03/09 01:51:32;;;;;;;12.53;7.27;;;-2.20;99.90;;;;;;5022585;28;20424;-72
2021/03/09 01:53:58;;;;;;;8.73;6.53;;;-2.20;99.90;;;;;;5020471;28;20448;-72
2021/03/09 01:56:24;;;;;;;10.00;6.77;;;-2.10;99.90;;;;;;5023537;28;20213;-72
2021/03/09 01:58:50;;;;;;;8.50;6.10;;;-2.20;99.90;;;;;;5020233;28;20194;-72
2021/03/09 02:01:16;;;;;;;10.00;6.00;;;-2.20;99.90;;;;;;5015583;28;20448;-72
2021/03/09 02:03:42;;;;;;;9.37;6.43;;;-2.20;99.90;;;;;;5022137;28;20569;-73
2021/03/09 02:06:11;;;;;;;9.90;7.00;;;-2.30;99.90;;;;;;5023068;28;20453;-72
2021/03/09 02:08:37;;;;;;;12.40;6.57;;;-2.30;99.90;;;;;;5020996;28;20508;-73
2021/03/09 02:11:08;;;;;;;11.77;8.40;;;-2.30;99.90;;;;;;5023706;28;20514;-72
2021/03/09 02:13:56;;;;;;;13.40;7.10;;;-2.30;99.90;;;;;;5020046;28;20214;-72
2021/03/09 02:17:03;;;;;;;13.37;8.70;;;-2.20;99.90;;;;;;5022102;28;20944;-71
2021/03/09 02:19:41;;;;;;;15.20;6.77;;;-2.30;99.90;;;;;;5005199;28;20418;-72
2021/03/09 02:22:12;;;;;;;10.97;6.77;;;-2.30;99.90;;;;;;5023145;28;20815;-72
2021/03/09 02:24:41;;;;;;;10.87;6.90;;;-2.30;99.90;;;;;;5020575;28;20414;-72
2021/03/09 02:27:35;;;;;;;9.13;6.97;;;-2.30;99.90;;;;;;5020194;28;20439;-72
2021/03/09 02:30:06;;;;;;;10.20;7.10;;;-2.30;99.90;;;;;;5016696;28;20454;-73
2021/03/09 02:32:48;;;;;;;15.17;7.23;;;-2.30;99.90;;;;;;5023742;28;20422;-72
2021/03/09 02:35:18;;;;;;;10.30;6.90;;;-2.40;99.90;;;;;;5021794;28;20562;-72
2021/03/09 02:37:45;;;;;;;8.30;6.50;;;-2.40;99.90;;;;;;5019703;28;20535;-72
2021/03/09 02:40:14;;;;;;;8.20;6.00;;;-2.40;99.90;;;;;;5020845;28;20417;-72
2021/03/09 02:42:46;;;;;;;14.70;7.57;;;-2.40;99.90;;;;;;5019023;28;20475;-72
2021/03/09 02:45:14;;;;;;;10.10;6.90;;;-2.40;99.90;;;;;;5019325;28;20468;-72
2021/03/09 02:47:45;;;;;;;13.33;7.50;;;-2.40;99.90;;;;;;5021337;28;20404;-72
2021/03/09 02:50:12;;;;;;;11.27;6.80;;;-2.40;99.90;;;;;;5022563;28;20938;-72
2021/03/09 02:52:40;;;;;;;18.63;7.37;;;-2.40;99.90;;;;;;5018914;28;20945;-72
2021/03/09 02:55:10;;;;;;;11.70;6.33;;;-2.40;99.90;;;;;;5023739;28;20435;-72
2021/03/09 02:57:37;;;;;;;11.17;6.60;;;-2.50;99.90;;;;;;5017664;28;20421;-72
2021/03/09 03:00:03;;;;;;;13.53;7.37;;;-2.50;99.90;;;;;;5015632;28;20450;-72
2021/03/09 03:02:32;;;;;;;14.57;7.97;;;-2.50;99.90;;;;;;5011166;28;20450;-72
2021/03/09 03:04:58;;;;;;;16.23;8.20;;;-2.50;99.90;;;;;;5020619;28;20469;-72
2021/03/09 03:07:24;;;;;;;14.30;8.07;;;-2.50;99.90;;;;;;5021305;28;20529;-72
2021/03/09 03:09:49;;;;;;;11.80;8.10;;;-2.60;99.90;;;;;;5018438;28;20195;-72
2021/03/09 03:12:15;;;;;;;11.53;7.30;;;-2.50;99.90;;;;;;5020537;28;20197;-72
2021/03/09 03:14:44;;;;;;;12.53;7.70;;;-2.50;99.90;;;;;;5019144;28;20219;-71
2021/03/09 03:17:13;;;;;;;10.43;7.50;;;-2.50;99.90;;;;;;5023421;28;20493;-72
2021/03/09 03:19:40;;;;;;;15.23;7.63;;;-2.60;99.90;;;;;;5018040;28;21019;-72
2021/03/09 03:22:06;;;;;;;12.40;7.43;;;-2.60;99.90;;;;;;5016512;28;20465;-72
2021/03/09 03:24:32;;;;;;;18.63;8.33;;;-2.60;99.90;;;;;;5019235;28;20442;-72
2021/03/09 03:26:58;;;;;;;14.97;8.53;;;-2.60;99.90;;;;;;5022547;28;20987;-72
2021/03/09 03:29:24;;;;;;;13.33;8.10;;;-2.60;99.90;;;;;;5019451;28;20424;-72
2021/03/09 03:31:50;;;;;;;12.60;7.90;;;-2.60;99.90;;;;;;5021346;28;20489;-73
2021/03/09 03:34:16;;;;;;;12.47;8.47;;;-2.60;99.90;;;;;;5017771;28;20200;-72
2021/03/09 03:36:42;;;;;;;13.27;7.47;;;-2.60;99.90;;;;;;5023642;28;20467;-74
2021/03/09 03:39:08;;;;;;;14.90;8.30;;;-2.60;99.90;;;;;;5019749;28;20427;-72
2021/03/09 03:41:35;;;;;;;12.30;7.20;;;-2.60;99.90;;;;;;5014281;28;20231;-73
2021/03/09 03:44:01;;;;;;;13.10;7.63;;;-2.60;99.90;;;;;;5020138;28;20431;-74
2021/03/09 03:46:27;;;;;;;16.33;9.50;;;-2.60;99.90;;;;;;5018400;28;20557;-74
2021/03/09 03:48:52;;;;;;;11.90;7.63;;;-2.70;99.90;;;;;;5021481;28;20393;-73
2021/03/09 03:51:21;;;;;;;19.97;7.80;;;-2.70;99.90;;;;;;5016197;28;20183;-73
2021/03/09 03:54:12;;;;;;;13.20;9.20;;;-2.70;99.90;;;;;;5019802;28;20729;-73
2021/03/09 03:56:57;;;;;;;14.43;8.40;;;-2.70;99.90;;;;;;5014380;28;20481;-73
2021/03/09 03:59:38;;;;;;;20.87;9.33;;;-2.70;99.90;;;;;;5016563;28;21042;-72
2021/03/09 04:02:07;;;;;;;14.60;8.40;;;-2.70;99.90;;;;;;5014845;28;20479;-72
2021/03/09 04:04:35;;;;;;;17.00;8.00;;;-2.70;99.90;;;;;;5022587;28;20505;-72
2021/03/09 04:07:02;;;;;;;16.10;9.70;;;-2.80;99.90;;;;;;5017465;28;20451;-73
2021/03/09 04:09:28;;;;;;;15.13;7.83;;;-2.80;99.90;;;;;;5020837;28;21000;-73
2021/03/09 04:11:56;;;;;;;15.53;9.20;;;-2.80;99.90;;;;;;5018156;28;20580;-73
2021/03/09 04:14:22;;;;;;;20.20;9.10;;;-2.80;99.90;;;;;;5014692;28;20296;-72
2021/03/09 04:16:52;;;;;;;11.70;8.33;;;-2.80;99.90;;;;;;5018460;28;20794;-73
2021/03/09 04:19:18;;;;;;;10.33;7.70;;;-2.80;99.90;;;;;;5017842;28;20475;-73
2021/03/09 04:21:45;;;;;;;15.93;8.40;;;-2.80;99.90;;;;;;5019844;28;20457;-73
2021/03/09 04:24:12;;;;;;;16.50;10.27;;;-2.80;99.90;;;;;;5016711;28;20449;-73
2021/03/09 04:26:40;;;;;;;17.47;9.30;;;-2.70;99.90;;;;;;5015692;28;20444;-73
2021/03/09 04:29:09;;;;;;;14.17;8.97;;;-2.80;99.90;;;;;;5016360;28;20447;-73
2021/03/09 04:31:34;;;;;;;12.17;7.63;;;-2.80;99.90;;;;;;5016749;28;20440;-73
2021/03/09 04:34:00;;;;;;;12.77;8.73;;;-2.80;99.90;;;;;;5016068;28;20437;-72
2021/03/09 04:36:26;;;;;;;14.70;8.80;;;-2.80;99.90;;;;;;5018011;28;20202;-74
2021/03/09 04:38:53;;;;;;;16.03;8.63;;;-2.80;99.90;;;;;;5018228;28;20660;-73
2021/03/09 04:41:19;;;;;;;15.10;9.73;;;-2.80;99.90;;;;;;5020088;28;20483;-72
2021/03/09 04:43:44;;;;;;;19.03;9.70;;;-2.80;99.90;;;;;;5019218;28;20455;-73
2021/03/09 04:46:10;;;;;;;17.17;9.23;;;-2.80;99.90;;;;;;5012919;28;20206;-73
2021/03/09 04:48:38;;;;;;;17.07;9.73;;;-2.80;99.90;;;;;;5022289;28;20274;-73
2021/03/09 04:51:11;;;;;;;18.37;8.07;;;-2.80;99.90;;;;;;5015346;28;21195;-74
2021/03/09 04:53:40;;;;;;;19.27;9.13;;;-2.80;99.90;;;;;;5018779;28;20443;-74
2021/03/09 04:56:07;;;;;;;18.20;8.43;;;-2.90;99.90;;;;;;5017214;28;20477;-73
2021/03/09 04:58:32;;;;;;;14.73;9.20;;;-2.90;99.90;;;;;;5018298;28;20415;-73
2021/03/09 05:00:58;;;;;;;12.97;8.00;;;-2.90;99.90;;;;;;5015698;28;20475;-73
2021/03/09 05:03:23;;;;;;;19.07;9.30;;;-2.90;99.90;;;;;;5018724;28;20592;-74
2021/03/09 05:05:50;;;;;;;15.37;9.00;;;-2.90;99.90;;;;;;5020019;28;20317;-74
2021/03/09 05:08:16;;;;;;;16.47;9.57;;;-2.90;99.90;;;;;;5013788;28;20198;-73
2021/03/09 05:10:42;;;;;;;15.67;9.37;;;-2.90;99.90;;;;;;5019053;28;20396;-73
2021/03/09 05:13:07;;;;;;;15.17;9.90;;;-2.90;99.90;;;;;;5019527;28;20653;-73
2021/03/09 05:15:33;;;;;;;18.10;11.00;;;-2.90;99.90;;;;;;5015900;28;20210;-72
2021/03/09 05:17:59;;;;;;;26.00;10.87;;;-2.90;99.90;;;;;;5015348;28;20181;-73
2021/03/09 05:20:25;;;;;;;16.93;8.60;;;-2.90;99.90;;;;;;5017389;28;20193;-73
2021/03/09 05:22:51;;;;;;;15.73;9.57;;;-2.90;99.90;;;;;;5019487;28;20444;-73
2021/03/09 05:25:17;;;;;;;19.30;10.73;;;-2.90;99.90;;;;;;5021061;28;20216;-73
2021/03/09 05:27:44;;;;;;;16.00;9.27;;;-2.90;99.90;;;;;;5026023;28;20180;-72
2021/03/09 05:30:11;;;;;;;16.57;9.63;;;-2.90;99.90;;;;;;5016410;28;20489;-73
2021/03/09 05:32:37;;;;;;;19.23;11.20;;;-2.90;99.90;;;;;;5022541;28;21175;-72
2021/03/09 05:35:04;;;;;;;20.90;10.33;;;-2.90;99.90;;;;;;5019625;28;20444;-73
2021/03/09 05:37:30;;;;;;;18.60;10.03;;;-2.90;99.90;;;;;;5023753;28;20263;-73
2021/03/09 05:39:56;;;;;;;33.73;11.23;;;-2.90;99.90;;;;;;5021818;28;20930;-74
2021/03/09 05:42:21;;;;;;;21.47;10.80;;;-2.90;99.90;;;;;;5019245;28;20223;-73
2021/03/09 05:44:47;;;;;;;29.80;11.57;;;-2.90;99.90;;;;;;5020033;28;20384;-72
2021/03/09 05:47:13;;;;;;;17.67;10.30;;;-2.90;99.90;;;;;;5022130;28;21264;-71
2021/03/09 05:49:39;;;;;;;16.73;9.70;;;-2.80;99.90;;;;;;5025520;28;20983;-70
2021/03/09 05:52:05;;;;;;;16.43;10.33;;;-2.80;99.90;;;;;;5017739;28;20218;-71
2021/03/09 05:54:30;;;;;;;16.70;10.33;;;-2.70;99.90;;;;;;5025285;28;20320;-70
2021/03/09 05:56:56;;;;;;;20.40;10.07;;;-2.70;99.90;;;;;;5021651;28;20415;-70
2021/03/09 05:59:23;;;;;;;19.40;10.23;;;-2.70;99.90;;;;;;5023198;28;20733;-71
2021/03/09 06:01:49;;;;;;;19.90;10.50;;;-2.60;99.90;;;;;;5011254;28;20202;-71
2021/03/09 06:04:15;;;;;;;19.93;10.07;;;-2.60;99.90;;;;;;5024414;28;21162;-70
2021/03/09 06:06:40;;;;;;;20.43;10.10;;;-2.60;99.90;;;;;;5001939;28;20547;-70
2021/03/09 06:09:43;;;;;;;15.40;9.77;;;-2.50;99.90;;;;;;5024766;28;20413;-70
2021/03/09 06:12:09;;;;;;;19.07;10.50;;;-2.50;99.90;;;;;;5019214;28;20198;-69
2021/03/09 06:15:01;;;;;;;27.43;10.00;;;-2.40;99.90;;;;;;5011142;28;20795;-70
2021/03/09 06:17:27;;;;;;;19.00;10.50;;;-2.30;99.90;;;;;;5014544;28;20701;-70
2021/03/09 06:19:53;;;;;;;28.77;11.70;;;-2.30;99.90;;;;;;5025517;28;20395;-70
2021/03/09 06:22:21;;;;;;;18.63;10.40;;;-2.20;99.90;;;;;;5027698;28;20478;-70
2021/03/09 06:24:47;;;;;;;19.77;9.67;;;-2.20;99.90;;;;;;5015541;28;20465;-70
2021/03/09 06:27:24;;;;;;;15.60;10.23;;;-2.10;99.90;;;;;;5024318;28;20449;-70
2021/03/09 06:29:50;;;;;;;30.63;12.20;;;-2.00;99.90;;;;;;5017197;28;20443;-70
2021/03/09 06:32:16;;;;;;;18.30;11.80;;;-1.90;99.90;;;;;;5022024;28;20428;-71
2021/03/09 06:34:41;;;;;;;16.93;11.43;;;-1.90;99.90;;;;;;5019908;28;20451;-69
2021/03/09 06:37:33;;;;;;;19.73;11.10;;;-1.80;99.90;;;;;;5020375;28;20186;-70
2021/03/09 06:40:06;;;;;;;18.67;10.10;;;-1.70;99.90;;;;;;5014633;28;20231;-70
2021/03/09 06:42:37;;;;;;;23.13;12.23;;;-1.50;99.90;;;;;;5025626;28;20440;-70
2021/03/09 06:45:13;;;;;;;16.57;11.07;;;-1.40;99.90;;;;;;5020829;28;20537;-70
2021/03/09 06:47:46;;;;;;;17.50;10.93;;;-1.30;99.90;;;;;;5017895;28;20433;-71
2021/03/09 06:50:20;;;;;;;20.07;12.10;;;-1.20;99.90;;;;;;5014225;28;20426;-69
2021/03/09 06:53:06;;;;;;;19.60;12.20;;;-1.00;99.90;;;;;;5013419;28;20447;-70
2021/03/09 06:55:34;;;;;;;18.50;11.60;;;-0.80;99.90;;;;;;5017611;28;20823;-70
2021/03/09 06:58:13;;;;;;;21.00;13.03;;;-0.80;99.90;;;;;;5017592;28;20439;-70
2021/03/09 07:00:43;;;;;;;19.60;10.87;;;-0.70;99.90;;;;;;5017015;28;20812;-70
2021/03/09 07:03:34;;;;;;;20.50;11.03;;;-0.60;99.90;;;;;;5015079;28;20455;-69
2021/03/09 07:06:00;;;;;;;31.53;12.50;;;-0.40;99.90;;;;;;5021988;28;20429;-70
2021/03/09 07:08:26;;;;;;;19.67;11.40;;;-0.30;99.90;;;;;;5020705;28;20444;-70
2021/03/09 07:10:52;;;;;;;22.13;11.40;;;0.00;99.90;;;;;;5019569;28;20228;-70
2021/03/09 07:13:25;;;;;;;20.43;12.40;;;0.20;99.90;;;;;;5018305;28;20431;-70
2021/03/09 07:15:54;;;;;;;21.20;12.70;;;0.40;99.90;;;;;;5021590;28;20544;-71
2021/03/09 07:18:27;;;;;;;17.50;11.33;;;0.50;99.90;;;;;;5016834;28;20439;-70
2021/03/09 07:20:54;;;;;;;22.47;12.80;;;0.70;99.90;;;;;;5021307;28;20439;-71
2021/03/09 07:23:25;;;;;;;19.47;11.63;;;0.90;99.90;;;;;;5019230;28;20441;-70
2021/03/09 07:25:58;;;;;;;23.97;12.50;;;1.10;99.90;;;;;;5013983;28;20464;-70
2021/03/09 07:28:33;;;;;;;29.43;13.20;;;1.30;99.90;;;;;;5018922;28;20435;-70
2021/03/09 07:31:00;;;;;;;17.90;12.90;;;1.50;99.90;;;;;;5011446;28;20484;-70
2021/03/09 07:33:28;;;;;;;18.07;11.63;;;1.70;99.90;;;;;;5017079;28;20436;-72
2021/03/09 07:40:57;;;;;;;21.23;14.30;;;2.30;99.90;;;;;;5006765;28;20469;-69
2021/03/09 07:43:23;;;;;;;18.17;12.77;;;2.60;99.90;;;;;;5009880;28;20825;-69
2021/03/09 07:45:49;;;;;;;25.30;14.03;;;2.70;99.90;;;;;;5010756;28;20433;-69
2021/03/09 07:48:20;;;;;;;20.83;12.70;;;2.90;99.90;;;;;;5010467;28;20462;-69
2021/03/09 07:50:47;;;;;;;25.53;13.50;;;3.10;99.90;;;;;;4986963;28;20447;-69
2021/03/09 07:53:22;;;;;;;21.53;14.13;;;3.10;99.90;;;;;;5010608;28;20437;-70
2021/03/09 07:56:08;;;;;;;18.60;12.60;;;3.20;99.90;;;;;;5012956;28;20425;-69
2021/03/09 07:58:34;;;;;;;25.93;14.43;;;3.30;99.90;;;;;;4998955;28;20885;-70
2021/03/09 08:01:05;;;;;;;18.07;13.47;;;3.30;99.90;;;;;;5010469;28;20463;-70
2021/03/09 08:03:32;;;;;;;20.17;12.57;;;3.40;99.90;;;;;;5010621;28;20434;-70
2021/03/09 08:06:03;;;;;;;22.27;13.57;;;3.30;99.90;;;;;;5011737;28;20438;-69
2021/03/09 08:08:51;;;;;;;19.70;12.63;;;3.50;99.90;;;;;;5010740;28;20819;-70
2021/03/09 08:11:20;;;;;;;25.23;14.40;;;3.40;99.90;;;;;;5008503;28;20433;-70
2021/03/09 08:13:47;;;;;;;25.23;13.90;;;3.40;99.90;;;;;;5006030;28;20448;-70
2021/03/09 08:16:19;;;;;;;21.80;13.83;;;3.40;99.90;;;;;;5004001;28;20451;-69
2021/03/09 08:18:45;;;;;;;23.50;14.90;;;3.50;99.90;;;;;;5006556;28;20466;-69
2021/03/09 08:21:11;;;;;;;23.63;14.87;;;3.50;99.90;;;;;;5006343;28;20494;-69
2021/03/09 08:23:37;;;;;;;24.67;14.33;;;3.70;99.90;;;;;;5009652;28;20433;-70
2021/03/09 08:26:02;;;;;;;21.03;13.73;;;3.80;99.90;;;;;;5004638;28;20189;-69
2021/03/09 08:28:34;;;;;;;21.33;14.17;;;4.00;99.90;;;;;;5000426;28;20201;-69
2021/03/09 08:31:11;;;;;;;23.27;14.50;;;4.40;99.90;;;;;;5003882;28;20354;-69
2021/03/09 08:33:38;;;;;;;18.33;13.50;;;4.80;99.90;;;;;;5011609;28;20428;-70
2021/03/09 08:36:32;;;;;;;21.20;13.00;;;5.10;99.90;;;;;;5007144;28;20442;-69
2021/03/09 08:39:01;;;;;;;23.60;14.37;;;5.30;99.90;;;;;;5010714;28;20459;-69
2021/03/09 08:41:27;;;;;;;27.57;15.13;;;5.50;99.90;;;;;;5011357;28;20858;-69
2021/03/09 08:44:22;;;;;;;27.13;14.93;;;5.60;99.90;;;;;;5010483;28;20420;-69
2021/03/09 08:47:06;;;;;;;27.40;15.17;;;5.80;99.90;;;;;;5005176;28;20433;-69
2021/03/09 08:49:38;;;;;;;20.33;14.17;;;5.80;99.90;;;;;;5007788;28;20691;-70
2021/03/09 08:52:39;;;;;;;24.10;14.60;;;5.80;99.90;;;;;;5005726;28;20530;-69
2021/03/09 08:55:06;;;;;;;30.60;16.57;;;5.90;99.90;;;;;;4980974;28;20475;-69
2021/03/09 08:57:32;;;;;;;24.57;15.90;;;6.10;99.90;;;;;;5004705;28;20825;-69
2021/03/09 09:00:06;;;;;;;23.70;15.70;;;6.40;99.90;;;;;;5006688;28;20464;-69
2021/03/09 09:02:32;;;;;;;25.10;15.60;;;6.50;99.90;;;;;;5009353;28;20217;-69
2021/03/09 09:05:04;;;;;;;28.17;16.10;;;6.70;99.90;;;;;;5009503;28;20461;-69
2021/03/09 09:07:36;;;;;;;23.40;15.97;;;6.70;99.90;;;;;;5010708;28;20190;-69
2021/03/09 09:10:10;;;;;;;27.27;14.53;;;6.60;99.90;;;;;;5009144;28;20520;-70
2021/03/09 09:12:37;;;;;;;24.90;15.23;;;6.60;99.90;;;;;;5009629;28;20458;-69
2021/03/09 09:15:13;;;;;;;25.13;16.00;;;6.50;99.90;;;;;;5004178;28;20850;-70
2021/03/09 09:17:42;;;;;;;30.33;17.00;;;6.70;99.90;;;;;;5003008;28;20440;-70
2021/03/09 09:20:12;;;;;;;30.70;16.57;;;6.80;99.90;;;;;;5004397;28;20957;-69
2021/03/09 09:22:39;;;;;;;36.50;18.00;;;6.90;99.90;;;;;;5010124;28;20465;-70
2021/03/09 09:25:07;;;;;;;27.57;18.00;;;6.90;99.90;;;;;;5005063;28;20453;-70
2021/03/09 09:27:51;;;;;;;36.97;17.13;;;6.90;99.90;;;;;;5002782;28;20473;-70
2021/03/09 09:30:20;;;;;;;28.60;17.43;;;6.90;99.90;;;;;;5004476;28;20445;-69
2021/03/09 09:32:48;;;;;;;26.70;16.23;;;7.20;99.90;;;;;;4990122;28;20439;-70
2021/03/09 09:35:15;;;;;;;25.97;15.60;;;7.20;99.90;;;;;;5007189;28;20496;-70
2021/03/09 09:37:48;;;;;;;28.57;17.53;;;7.20;99.90;;;;;;5009773;28;20429;-69
2021/03/09 09:40:15;;;;;;;29.17;16.57;;;7.20;99.90;;;;;;5010593;28;20881;-69
2021/03/09 09:42:41;;;;;;;27.03;16.80;;;7.20;99.90;;;;;;5005283;28;20508;-69
2021/03/09 09:45:07;;;;;;;29.73;17.60;;;7.50;99.90;;;;;;4982283;28;20453;-70
2021/03/09 09:47:33;;;;;;;28.53;16.60;;;7.50;99.90;;;;;;5010749;28;20767;-69
2021/03/09 09:50:01;;;;;;;28.40;15.27;;;7.20;99.90;;;;;;5005478;28;20802;-69
2021/03/09 09:52:27;;;;;;;28.77;16.83;;;7.40;99.90;;;;;;5000201;28;20443;-69
2021/03/09 09:54:54;;;;;;;22.30;15.33;;;7.50;99.90;;;;;;5000313;28;20477;-69
2021/03/09 09:57:21;;;;;;;27.90;18.27;;;7.80;99.90;;;;;;4999081;28;20185;-70
2021/03/09 09:59:47;;;;;;;25.80;16.10;;;7.80;99.90;;;;;;5000563;28;20450;-69
2021/03/09 10:02:14;;;;;;;25.70;17.40;;;7.70;99.90;;;;;;5000993;28;20468;-70
2021/03/09 10:04:40;;;;;;;25.53;15.63;;;7.90;99.90;;;;;;5000111;28;20176;-69
2021/03/09 10:07:20;;;;;;;27.20;17.20;;;8.00;99.90;;;;;;5000226;28;20944;-69
2021/03/09 10:09:59;;;;;;;29.43;16.73;;;8.10;99.90;;;;;;5000683;28;20200;-70
2021/03/09 10:12:38;;;;;;;25.13;17.47;;;8.30;99.90;;;;;;5007148;28;20751;-69
2021/03/09 10:15:06;;;;;;;25.97;16.50;;;8.40;99.90;;;;;;5010109;28;20441;-70
2021/03/09 10:17:32;;;;;;;28.00;17.20;;;8.50;99.90;;;;;;5015888;28;20435;-69
2021/03/09 10:19:58;;;;;;;28.43;16.83;;;8.50;99.90;;;;;;5008483;28;20462;-69
2021/03/09 10:22:25;;;;;;;27.73;17.30;;;8.40;99.90;;;;;;5005308;28;20475;-69
2021/03/09 10:24:51;;;;;;;21.50;14.93;;;8.50;99.90;;;;;;4987804;28;20191;-69
2021/03/09 10:27:23;;;;;;;25.50;16.20;;;8.50;99.90;;;;;;5006724;28;20441;-69
2021/03/09 10:29:54;;;;;;;30.07;18.90;;;8.60;99.90;;;;;;5002692;28;20460;-70
2021/03/09 10:32:20;;;;;;;28.40;16.27;;;8.80;99.90;;;;;;4988786;28;20449;-69
2021/03/09 10:34:56;;;;;;;33.97;17.73;;;8.80;99.90;;;;;;5003367;28;20975;-70
2021/03/09 10:37:37;;;;;;;24.03;15.97;;;8.70;99.90;;;;;;5005061;28;20553;-70
2021/03/09 10:40:15;;;;;;;21.80;15.60;;;8.60;99.90;;;;;;4991582;28;20485;-70
2021/03/09 10:42:43;;;;;;;22.87;14.73;;;8.50;99.90;;;;;;5005385;28;20471;-69
2021/03/09 10:45:15;;;;;;;25.20;15.47;;;8.70;99.90;;;;;;5001899;28;20435;-70
2021/03/09 10:47:41;;;;;;;26.77;14.00;;;9.00;99.90;;;;;;5012352;28;20494;-68
2021/03/09 10:50:07;;;;;;;26.70;16.30;;;9.10;99.90;;;;;;5011297;28;20538;-69
2021/03/09 10:52:33;;;;;;;26.87;16.77;;;9.40;99.90;;;;;;4997029;28;20200;-70
2021/03/09 10:54:59;;;;;;;22.90;15.33;;;9.50;99.90;;;;;;4994563;28;20965;-70
2021/03/09 10:57:24;;;;;;;18.70;14.30;;;9.50;99.90;;;;;;5015461;28;20779;-69
2021/03/09 10:59:50;;;;;;;20.00;13.70;;;9.50;99.90;;;;;;5013085;28;20288;-70
2021/03/09 11:02:15;;;;;;;23.57;15.30;;;9.40;99.90;;;;;;5007237;28;20301;-70
2021/03/09 11:04:41;;;;;;;23.70;14.70;;;9.30;99.90;;;;;;5000596;28;20536;-70
2021/03/09 11:07:06;;;;;;;25.13;15.83;;;9.50;99.90;;;;;;5004634;28;20229;-70
2021/03/09 11:09:32;;;;;;;20.93;14.17;;;9.50;99.90;;;;;;4972241;28;20207;-70
2021/03/09 11:11:57;;;;;;;22.83;14.60;;;9.50;99.90;;;;;;5000146;28;20204;-69
2021/03/09 11:14:23;;;;;;;22.30;14.10;;;9.30;99.90;;;;;;5002952;28;20193;-69
2021/03/09 11:16:49;;;;;;;21.53;13.97;;;9.30;99.90;;;;;;5003198;28;20595;-69
2021/03/09 11:19:14;;;;;;;20.83;14.70;;;9.10;99.90;;;;;;5007647;28;20209;-69
2021/03/09 11:21:40;;;;;;;18.50;13.00;;;9.10;99.90;;;;;;5001262;28;20511;-70
2021/03/09 11:24:06;;;;;;;22.03;15.40;;;9.30;99.90;;;;;;5002177;28;20223;-70
2021/03/09 11:26:31;;;;;;;21.57;14.70;;;9.40;99.90;;;;;;5007951;28;20194;-70
2021/03/09 11:28:57;;;;;;;26.93;13.83;;;9.50;99.90;;;;;;5002157;28;20450;-69
2021/03/09 11:31:23;;;;;;;25.90;12.87;;;9.70;99.90;;;;;;5008339;28;20525;-70
2021/03/09 11:33:49;;;;;;;18.37;11.57;;;9.70;99.90;;;;;;4988718;28;20180;-69
2021/03/09 11:36:15;;;;;;;22.13;12.03;;;9.80;99.90;;;;;;5001192;28;20679;-70
2021/03/09 11:38:42;;;;;;;16.83;11.70;;;9.80;99.90;;;;;;5000848;28;20793;-70
2021/03/09 11:41:09;;;;;;;20.40;13.13;;;9.90;99.90;;;;;;5008048;28;20251;-70
2021/03/09 11:43:35;;;;;;;22.10;11.57;;;10.20;99.90;;;;;;5007417;28;20422;-69
2021/03/09 11:46:01;;;;;;;19.67;12.63;;;10.20;99.90;;;;;;5009580;28;21202;-69
2021/03/09 11:48:26;;;;;;;25.60;12.00;;;10.10;99.90;;;;;;5000608;28;20542;-70
2021/03/09 11:50:52;;;;;;;19.83;11.50;;;9.90;99.90;;;;;;5003531;28;20807;-69
2021/03/09 11:53:18;;;;;;;14.80;10.77;;;9.90;99.90;;;;;;4993458;28;20271;-69
2021/03/09 11:55:45;;;;;;;15.47;10.60;;;10.00;99.90;;;;;;5013412;28;20179;-71
2021/03/09 11:58:10;;;;;;;14.17;10.37;;;10.20;99.90;;;;;;5015578;28;20449;-70
2021/03/09 12:00:36;;;;;;;16.53;11.97;;;10.40;99.90;;;;;;5000242;28;21019;-69
2021/03/09 12:03:02;;;;;;;15.83;11.57;;;10.40;99.90;;;;;;5011198;28;20228;-70
2021/03/09 12:05:28;;;;;;;12.10;10.50;;;10.10;99.90;;;;;;5010005;28;20583;-70
2021/03/09 12:07:53;;;;;;;13.60;10.27;;;10.00;99.90;;;;;;5000397;28;20187;-70
2021/03/09 12:10:19;;;;;;;16.37;10.00;;;10.10;99.90;;;;;;5000652;28;20647;-70
2021/03/09 12:12:44;;;;;;;14.97;10.27;;;9.90;99.90;;;;;;5001155;28;20625;-69
2021/03/09 12:15:11;;;;;;;18.47;11.33;;;10.00;99.90;;;;;;5002568;28;20683;-69
2021/03/09 12:17:37;;;;;;;13.80;10.77;;;10.10;99.90;;;;;;5007192;28;20184;-69
2021/03/09 12:20:04;;;;;;;11.67;9.63;;;10.20;99.90;;;;;;4998784;28;20455;-70
2021/03/09 12:22:30;;;;;;;11.77;10.37;;;10.30;99.90;;;;;;4987911;28;20470;-70
2021/03/09 12:24:55;;;;;;;11.57;9.27;;;10.20;99.90;;;;;;4991963;28;20437;-69
2021/03/09 12:27:21;;;;;;;12.17;10.17;;;10.20;99.90;;;;;;5003015;28;20240;-71
2021/03/09 12:29:46;;;;;;;15.10;11.10;;;10.30;99.90;;;;;;5001632;28;20207;-69
2021/03/09 12:32:12;;;;;;;16.13;13.00;;;10.30;99.90;;;;;;5003626;28;20277;-69
2021/03/09 12:34:38;;;;;;;15.93;10.50;;;10.30;99.90;;;;;;4990613;28;20233;-69
2021/03/09 12:37:04;;;;;;;17.40;11.10;;;10.00;99.90;;;;;;5013456;28;20243;-70
2021/03/09 12:39:29;;;;;;;15.83;11.23;;;10.20;99.90;;;;;;5015458;28;20603;-68
2021/03/09 12:41:55;;;;;;;18.63;12.80;;;10.30;99.90;;;;;;5016593;28;20471;-69
2021/03/09 12:44:21;;;;;;;14.30;11.53;;;10.20;99.90;;;;;;5009799;28;20181;-70
2021/03/09 12:46:46;;;;;;;18.43;11.10;;;10.20;99.90;;;;;;5005602;28;20186;-70
2021/03/09 12:49:12;;;;;;;14.40;10.93;;;10.10;99.90;;;;;;5001860;28;20588;-69